Andrew J. Barberi — WYR3370 — position and weather

sailwx.info

Track history (hours):
 
Tides and Currents Weather Stations Pressure Air Temp Water Temp Dewpoint Dewpoint Depression Visibility Wind Speed Wind Dir Waves Ship Positions

Andrew J. Barberi

Owner: CITY OF NEW YORK, Brooklyn, NY. More information available from US FCC via Universal Licensing System and Coast Guard Vessel Documentation Center.

Last reported at 2015-Jul-04 14:33 UTC. Time now 2015-Jul-04 15:18 UTC.
Position N 40°39' W 074°04'.

Length 94 m; draft 4.3 m.

Type: Ship. MMSI: 367000150.

Date/timePositionNaut miles runAvg speedWind from/ knotsBaromVisibWave heightAir tempDewpointWater temp
2015-Jul-04 14:33N 40°39' W 074°04'0 0.0
2015-Jul-04 13:33N 40°39' W 074°04'0 0.0
2015-Jul-04 12:31N 40°39' W 074°04'0 0.0
2015-Jul-04 11:31N 40°39' W 074°04'0 0.0
2015-Jul-04 10:31N 40°39' W 074°04'0 0.0
2015-Jul-04 09:31N 40°39' W 074°04'0 0.0
2015-Jul-04 08:31N 40°39' W 074°04'0 0.0
2015-Jul-04 07:31N 40°39' W 074°04'0 0.0
2015-Jul-04 06:31N 40°39' W 074°04'0 0.0
2015-Jul-04 05:31N 40°39' W 074°04'0 0.0
2015-Jul-04 04:31N 40°39' W 074°04'0 0.0
2015-Jul-04 03:31N 40°39' W 074°04'0 0.0
2015-Jul-04 02:31N 40°39' W 074°04'0 0.0
2015-Jul-04 01:31N 40°39' W 074°04'0 0.1
2015-Jul-04 00:34N 40°39' W 074°04'4 4.3
2015-Jul-03 23:33N 40°42' W 074°01'0 0.0
2015-Jul-03 22:33N 40°42' W 074°01'0 0.2
2015-Jul-03 21:34N 40°42' W 074°01'1 0.9
2015-Jul-03 20:33N 40°41' W 074°02'3 3.1
2015-Jul-03 19:33N 40°39' W 074°04'0 0.1
2015-Jul-03 18:31N 40°39' W 074°04'0 0.3
2015-Jul-03 17:33N 40°39' W 074°04'0 0.3
2015-Jul-03 16:34N 40°39' W 074°04'0 0.0
2015-Jul-03 15:34N 40°39' W 074°04'0 0.1
2015-Jul-03 14:34N 40°39' W 074°04'0 0.4
2015-Jul-03 13:34N 40°39' W 074°04'4 3.7
2015-Jul-03 12:34N 40°42' W 074°01'0 0.2
2015-Jul-03 11:34N 40°42' W 074°01'0 0.4
2015-Jul-03 10:33N 40°42' W 074°01'4 4.1
2015-Jul-03 09:33N 40°39' W 074°04'0 0.0
2015-Jul-03 08:33N 40°39' W 074°04'0 0.0
2015-Jul-03 07:31N 40°39' W 074°04'0 0.0
2015-Jul-03 06:31N 40°39' W 074°04'0 0.0
2015-Jul-03 05:31N 40°39' W 074°04'0 0.0
2015-Jul-03 04:31N 40°39' W 074°04'0 0.0
2015-Jul-03 03:31N 40°39' W 074°04'0 0.0
2015-Jul-03 02:31N 40°39' W 074°04'4 2.1
2015-Jul-03 00:33N 40°42' W 074°01'4 3.6
2015-Jul-02 23:25N 40°39' W 074°04'0 0.1
2015-Jul-02 22:33N 40°39' W 074°04'0 0.3
2015-Jul-02 21:33N 40°39' W 074°04'4 3.9
2015-Jul-02 20:34N 40°42' W 074°01'0 0.0
2015-Jul-02 19:33N 40°42' W 074°01'4 3.8
2015-Jul-02 18:27N 40°39' W 074°04'0 0.5
2015-Jul-02 17:33N 40°39' W 074°04'4 3.9
2015-Jul-02 16:34N 40°42' W 074°01'0 0.1
2015-Jul-02 15:34N 40°42' W 074°01'4 4.2
2015-Jul-02 14:34N 40°39' W 074°04'0 0.1
2015-Jul-02 13:34N 40°39' W 074°04'3 3.4
2015-Jul-02 12:34N 40°41' W 074°02'0 0.5
2015-Jul-02 11:34N 40°42' W 074°01'0 0.1
2015-Jul-02 10:34N 40°42' W 074°01'4 4.1
2015-Jul-02 09:33N 40°39' W 074°04'0 0.0
2015-Jul-02 08:34N 40°39' W 074°04'0 0.0
2015-Jul-02 07:31N 40°39' W 074°04'0 0.0
2015-Jul-02 06:31N 40°39' W 074°04'0 0.0
2015-Jul-02 05:31N 40°39' W 074°04'0 0.0
2015-Jul-02 04:31N 40°39' W 074°04'0 0.0
2015-Jul-02 03:32N 40°39' W 074°04'0 0.0
2015-Jul-02 02:31N 40°39' W 074°04'0 0.0
2015-Jul-02 01:11N 40°39' W 074°04'4 6.8
2015-Jul-02 00:33N 40°42' W 074°01'4 3.9
2015-Jul-01 23:28N 40°39' W 074°04'0 0.1
2015-Jul-01 22:27N 40°39' W 074°04'0 0.1
2015-Jul-01 21:33N 40°39' W 074°04'4 4.2
2015-Jul-01 20:33N 40°42' W 074°01'0 0.0
2015-Jul-01 19:34N 40°42' W 074°01'4 4.2
2015-Jul-01 18:33N 40°39' W 074°04'0 0.3
2015-Jul-01 17:34N 40°39' W 074°04'0 0.3
2015-Jul-01 16:34N 40°39' W 074°04'0 0.1
2015-Jul-01 15:33N 40°39' W 074°04'0 0.1
2015-Jul-01 14:34N 40°39' W 074°04'0 0.2
2015-Jul-01 13:33N 40°39' W 074°04'3 2.7
2015-Jul-01 12:34N 40°41' W 074°02'1 1.3
2015-Jul-01 11:34N 40°42' W 074°01'0 0.1
2015-Jul-01 10:33N 40°42' W 074°01'4 4.4
2015-Jul-01 09:33N 40°38' W 074°04'1 0.7
2015-Jul-01 08:33N 40°39' W 074°04'0 0.0
2015-Jul-01 07:34N 40°39' W 074°04'0 0.0
2015-Jul-01 06:33N 40°39' W 074°04'0 0.0
2015-Jul-01 05:33N 40°39' W 074°04'0 0.0
2015-Jul-01 04:34N 40°39' W 074°04'0 0.0
2015-Jul-01 03:33N 40°39' W 074°04'0 0.0
2015-Jul-01 02:34N 40°39' W 074°04'0 0.0
2015-Jul-01 01:34N 40°39' W 074°04'4 4.2
2015-Jul-01 00:33N 40°42' W 074°01'4 3.7
2015-Jun-30 23:26N 40°39' W 074°04'0 0.0
2015-Jun-30 22:28N 40°39' W 074°04'0 0.1
2015-Jun-30 21:33N 40°39' W 074°04'4 4.2
2015-Jun-30 20:33N 40°42' W 074°01'0 0.0
2015-Jun-30 19:33N 40°42' W 074°01'4 3.8
2015-Jun-30 18:26N 40°39' W 074°04'0 0.2
2015-Jun-30 17:34N 40°39' W 074°04'4 4.1
2015-Jun-30 16:34N 40°42' W 074°01'4 4.3
2015-Jun-30 15:34N 40°39' W 074°04'0 0.0
2015-Jun-30 14:34N 40°39' W 074°04'0 0.1
2015-Jun-30 13:33N 40°39' W 074°04'4 3.9
2015-Jun-30 12:34N 40°42' W 074°01'0 0.2
2015-Jun-30 11:34N 40°42' W 074°01'0 0.1
2015-Jun-30 10:33N 40°42' W 074°01'4 4.2
2015-Jun-30 09:33N 40°39' W 074°04'0 0.0
2015-Jun-30 08:33N 40°39' W 074°04'0 0.0
2015-Jun-30 07:33N 40°39' W 074°04'0 0.0
2015-Jun-30 06:33N 40°39' W 074°04'0 0.0
2015-Jun-30 05:33N 40°39' W 074°04'0 0.0
2015-Jun-30 04:33N 40°39' W 074°04'0 0.0
2015-Jun-30 03:33N 40°39' W 074°04'0 0.0
2015-Jun-30 02:33N 40°39' W 074°04'0 0.0
2015-Jun-30 01:33N 40°39' W 074°04'4 4.1
2015-Jun-30 00:34N 40°42' W 074°01'4 4.1
2015-Jun-29 23:33N 40°39' W 074°04'0 0.0
2015-Jun-29 22:33N 40°39' W 074°04'0 0.0
2015-Jun-29 21:33N 40°39' W 074°04'4 4.3
2015-Jun-29 20:33N 40°42' W 074°01'0 0.1
2015-Jun-29 19:33N 40°42' W 074°01'4 4.3
2015-Jun-29 18:34N 40°39' W 074°04'0 0.4
2015-Jun-29 17:33N 40°39' W 074°04'4 3.9
2015-Jun-29 16:33N 40°42' W 074°01'4 4.3
2015-Jun-29 15:33N 40°39' W 074°04'0 0.0
2015-Jun-29 14:33N 40°39' W 074°04'0 0.1
2015-Jun-29 13:33N 40°39' W 074°04'3 3.5
2015-Jun-29 12:34N 40°41' W 074°02'0 0.2
2015-Jun-29 11:33N 40°42' W 074°01'1 0.7
2015-Jun-29 10:33N 40°42' W 074°01'4 4.3
2015-Jun-29 09:33N 40°39' W 074°04'0 0.0
2015-Jun-29 08:33N 40°39' W 074°04'0 0.0
2015-Jun-29 07:31N 40°39' W 074°04'0 0.0
2015-Jun-29 06:31N 40°39' W 074°04'0 0.0
2015-Jun-29 05:31N 40°39' W 074°04'0 0.0
2015-Jun-29 04:31N 40°39' W 074°04'0 0.0
2015-Jun-29 03:31N 40°39' W 074°04'0 0.0
2015-Jun-29 02:31N 40°39' W 074°04'0 0.0
2015-Jun-29 01:31N 40°39' W 074°04'0 0.0
2015-Jun-29 00:34N 40°39' W 074°04'0 0.1
2015-Jun-28 23:33N 40°39' W 074°04'0 0.1
2015-Jun-28 22:33N 40°39' W 074°04'0 0.2
2015-Jun-28 21:33N 40°39' W 074°04'4 4.0
2015-Jun-28 20:33N 40°42' W 074°01'4 4.2
2015-Jun-28 19:33N 40°39' W 074°04'0 0.2
2015-Jun-28 18:33N 40°39' W 074°04'4 4.0
2015-Jun-28 17:34N 40°42' W 074°01'4 4.3
2015-Jun-28 16:33N 40°39' W 074°04'0 0.3
2015-Jun-28 15:33N 40°39' W 074°04'0 0.4
2015-Jun-28 14:34N 40°39' W 074°04'0 0.0
2015-Jun-28 13:33N 40°39' W 074°04'0 0.0
2015-Jun-28 12:33N 40°39' W 074°04'0 0.0
2015-Jun-28 11:33N 40°39' W 074°04'0 0.0
2015-Jun-28 10:33N 40°39' W 074°04'0 0.0
2015-Jun-28 09:33N 40°39' W 074°04'0 0.0
2015-Jun-28 08:33N 40°39' W 074°04'0 0.0
2015-Jun-28 07:33N 40°39' W 074°04'0 0.0
2015-Jun-28 06:33N 40°39' W 074°04'0 0.0
2015-Jun-28 05:33N 40°39' W 074°04'0 0.0
2015-Jun-28 04:33N 40°39' W 074°04'0 0.0
2015-Jun-28 03:33N 40°39' W 074°04'0 0.0
2015-Jun-28 02:33N 40°39' W 074°04'0 0.0
2015-Jun-28 01:33N 40°39' W 074°04'0 0.0
2015-Jun-28 00:33N 40°39' W 074°04'4 4.3
2015-Jun-27 23:33N 40°42' W 074°01'0 0.0
2015-Jun-27 22:34N 40°42' W 074°01'0 0.1
2015-Jun-27 21:34N 40°42' W 074°01'4 4.2
2015-Jun-27 20:33N 40°39' W 074°04'0 0.1
2015-Jun-27 19:33N 40°39' W 074°04'0 0.1
2015-Jun-27 18:33N 40°39' W 074°04'4 4.1
2015-Jun-27 17:33N 40°42' W 074°01'4 4.3
2015-Jun-27 16:34N 40°39' W 074°04'0 0.5
2015-Jun-27 15:33N 40°39' W 074°04'0 0.5
2015-Jun-27 14:33N 40°39' W 074°04'4 0.3
2015-Jun-26 23:28N 40°42' W 074°01'0 0.0
2015-Jun-26 22:32N 40°42' W 074°01'0 0.2
2015-Jun-26 21:34N 40°42' W 074°01'0 0.2
2015-Jun-26 20:14N 40°42' W 074°01'4 5.8
2015-Jun-26 19:29N 40°39' W 074°04'0 0.0
2015-Jun-26 18:34N 40°39' W 074°04'0 0.2
2015-Jun-26 17:33N 40°39' W 074°04'4 4.1
2015-Jun-26 16:33N 40°42' W 074°01'4 4.4
2015-Jun-26 15:33N 40°39' W 074°04'0 0.0
2015-Jun-26 14:33N 40°39' W 074°04'0 0.0
2015-Jun-26 13:33N 40°39' W 074°04'3 3.3
2015-Jun-26 12:33N 40°41' W 074°02'0 0.4
2015-Jun-26 11:34N 40°42' W 074°01'0 0.5
2015-Jun-26 10:33N 40°42' W 074°01'4 4.1
2015-Jun-26 09:33N 40°39' W 074°04'0 0.0
2015-Jun-26 08:33N 40°39' W 074°04'0 0.0
2015-Jun-26 07:34N 40°39' W 074°04'0 0.0
2015-Jun-26 06:33N 40°39' W 074°04'0 0.0
2015-Jun-26 05:33N 40°39' W 074°04'0 0.0
2015-Jun-26 04:34N 40°39' W 074°04'0 0.0
2015-Jun-26 03:33N 40°39' W 074°04'0 0.0
2015-Jun-26 02:33N 40°39' W 074°04'0 0.0
2015-Jun-25 23:33N 40°39' W 074°04'0 0.0
2015-Jun-25 22:27N 40°39' W 074°04'0 0.1
2015-Jun-25 21:34N 40°39' W 074°04'4 4.3
2015-Jun-25 20:34N 40°42' W 074°01'0 0.0
2015-Jun-25 19:24N 40°42' W 074°01'4 4.3
2015-Jun-25 18:24N 40°39' W 074°04'0 0.2
2015-Jun-25 17:33N 40°39' W 074°04'0 0.2
2015-Jun-25 16:33N 40°39' W 074°04'0 0.0
2015-Jun-25 15:33N 40°39' W 074°04'0 0.1
2015-Jun-25 14:33N 40°39' W 074°04'0 0.1
2015-Jun-25 13:33N 40°39' W 074°04'3 3.3
2015-Jun-25 12:33N 40°41' W 074°02'0 0.0
2015-Jun-25 11:33N 40°41' W 074°02'1 1.0
2015-Jun-25 10:34N 40°42' W 074°01'4 4.2
2015-Jun-25 09:33N 40°39' W 074°04'0 0.0
2015-Jun-25 08:33N 40°39' W 074°04'0 0.0
2015-Jun-25 07:32N 40°39' W 074°04'0 0.0
2015-Jun-25 06:32N 40°39' W 074°04'0 0.0
2015-Jun-25 05:32N 40°39' W 074°04'0 0.0
2015-Jun-25 04:32N 40°39' W 074°04'0 0.0
2015-Jun-25 03:32N 40°39' W 074°04'0 0.0
2015-Jun-25 02:32N 40°39' W 074°04'0 0.0
2015-Jun-25 01:33N 40°39' W 074°04'4 4.3
2015-Jun-25 00:33N 40°42' W 074°01'4 4.3
2015-Jun-24 23:33N 40°39' W 074°04'0 0.0
2015-Jun-24 22:27N 40°39' W 074°04'0 0.0
2015-Jun-24 21:33N 40°39' W 074°04'4 4.3
2015-Jun-24 20:34N 40°42' W 074°01'0 0.0
2015-Jun-24 19:33N 40°42' W 074°01'4 4.3
2015-Jun-24 18:33N 40°39' W 074°04'0 0.1
2015-Jun-24 17:33N 40°39' W 074°04'4 4.2
2015-Jun-24 16:33N 40°42' W 074°01'4 4.3
2015-Jun-24 15:33N 40°39' W 074°04'  
Track history (hours):
 
Tides and Currents Weather Stations Pressure Air Temp Water Temp Dewpoint Dewpoint Depression Visibility Wind Speed Wind Dir Waves Ship Positions

Andrew J. Barberi

Owner: CITY OF NEW YORK, Brooklyn, NY. More information available from US FCC via Universal Licensing System and Coast Guard Vessel Documentation Center.

Last reported at 2015-Jul-04 14:33 UTC. Time now 2015-Jul-04 15:18 UTC.
Position N 40°39' W 074°04'.

Length 94 m; draft 4.3 m.

Type: Ship. MMSI: 367000150.

Date/timePositionNaut miles runAvg speedWind from/ knotsBaromVisibWave heightAir tempDewpointWater temp
2015-Jul-04 14:33N 40°39' W 074°04'0 0.0
2015-Jul-04 13:33N 40°39' W 074°04'0 0.0
2015-Jul-04 12:31N 40°39' W 074°04'0 0.0
2015-Jul-04 11:31N 40°39' W 074°04'0 0.0
2015-Jul-04 10:31N 40°39' W 074°04'0 0.0
2015-Jul-04 09:31N 40°39' W 074°04'0 0.0
2015-Jul-04 08:31N 40°39' W 074°04'0 0.0
2015-Jul-04 07:31N 40°39' W 074°04'0 0.0
2015-Jul-04 06:31N 40°39' W 074°04'0 0.0
2015-Jul-04 05:31N 40°39' W 074°04'0 0.0
2015-Jul-04 04:31N 40°39' W 074°04'0 0.0
2015-Jul-04 03:31N 40°39' W 074°04'0 0.0
2015-Jul-04 02:31N 40°39' W 074°04'0 0.0
2015-Jul-04 01:31N 40°39' W 074°04'0 0.1
2015-Jul-04 00:34N 40°39' W 074°04'4 4.3
2015-Jul-03 23:33N 40°42' W 074°01'0 0.0
2015-Jul-03 22:33N 40°42' W 074°01'0 0.2
2015-Jul-03 21:34N 40°42' W 074°01'1 0.9
2015-Jul-03 20:33N 40°41' W 074°02'3 3.1
2015-Jul-03 19:33N 40°39' W 074°04'0 0.1
2015-Jul-03 18:31N 40°39' W 074°04'0 0.3
2015-Jul-03 17:33N 40°39' W 074°04'0 0.3
2015-Jul-03 16:34N 40°39' W 074°04'0 0.0
2015-Jul-03 15:34N 40°39' W 074°04'0 0.1
2015-Jul-03 14:34N 40°39' W 074°04'0 0.4
2015-Jul-03 13:34N 40°39' W 074°04'4 3.7
2015-Jul-03 12:34N 40°42' W 074°01'0 0.2
2015-Jul-03 11:34N 40°42' W 074°01'0 0.4
2015-Jul-03 10:33N 40°42' W 074°01'4 4.1
2015-Jul-03 09:33N 40°39' W 074°04'0 0.0
2015-Jul-03 08:33N 40°39' W 074°04'0 0.0
2015-Jul-03 07:31N 40°39' W 074°04'0 0.0
2015-Jul-03 06:31N 40°39' W 074°04'0 0.0
2015-Jul-03 05:31N 40°39' W 074°04'0 0.0
2015-Jul-03 04:31N 40°39' W 074°04'0 0.0
2015-Jul-03 03:31N 40°39' W 074°04'0 0.0
2015-Jul-03 02:31N 40°39' W 074°04'4 2.1
2015-Jul-03 00:33N 40°42' W 074°01'4 3.6
2015-Jul-02 23:25N 40°39' W 074°04'0 0.1
2015-Jul-02 22:33N 40°39' W 074°04'0 0.3
2015-Jul-02 21:33N 40°39' W 074°04'4 3.9
2015-Jul-02 20:34N 40°42' W 074°01'0 0.0
2015-Jul-02 19:33N 40°42' W 074°01'4 3.8
2015-Jul-02 18:27N 40°39' W 074°04'0 0.5
2015-Jul-02 17:33N 40°39' W 074°04'4 3.9
2015-Jul-02 16:34N 40°42' W 074°01'0 0.1
2015-Jul-02 15:34N 40°42' W 074°01'4 4.2
2015-Jul-02 14:34N 40°39' W 074°04'0 0.1
2015-Jul-02 13:34N 40°39' W 074°04'3 3.4
2015-Jul-02 12:34N 40°41' W 074°02'0 0.5
2015-Jul-02 11:34N 40°42' W 074°01'0 0.1
2015-Jul-02 10:34N 40°42' W 074°01'4 4.1
2015-Jul-02 09:33N 40°39' W 074°04'0 0.0
2015-Jul-02 08:34N 40°39' W 074°04'0 0.0
2015-Jul-02 07:31N 40°39' W 074°04'0 0.0
2015-Jul-02 06:31N 40°39' W 074°04'0 0.0
2015-Jul-02 05:31N 40°39' W 074°04'0 0.0
2015-Jul-02 04:31N 40°39' W 074°04'0 0.0
2015-Jul-02 03:32N 40°39' W 074°04'0 0.0
2015-Jul-02 02:31N 40°39' W 074°04'0 0.0
2015-Jul-02 01:11N 40°39' W 074°04'4 6.8
2015-Jul-02 00:33N 40°42' W 074°01'4 3.9
2015-Jul-01 23:28N 40°39' W 074°04'0 0.1
2015-Jul-01 22:27N 40°39' W 074°04'0 0.1
2015-Jul-01 21:33N 40°39' W 074°04'4 4.2
2015-Jul-01 20:33N 40°42' W 074°01'0 0.0
2015-Jul-01 19:34N 40°42' W 074°01'4 4.2
2015-Jul-01 18:33N 40°39' W 074°04'0 0.3
2015-Jul-01 17:34N 40°39' W 074°04'0 0.3
2015-Jul-01 16:34N 40°39' W 074°04'0 0.1
2015-Jul-01 15:33N 40°39' W 074°04'0 0.1
2015-Jul-01 14:34N 40°39' W 074°04'0 0.2
2015-Jul-01 13:33N 40°39' W 074°04'3 2.7
2015-Jul-01 12:34N 40°41' W 074°02'1 1.3
2015-Jul-01 11:34N 40°42' W 074°01'0 0.1
2015-Jul-01 10:33N 40°42' W 074°01'4 4.4
2015-Jul-01 09:33N 40°38' W 074°04'1 0.7
2015-Jul-01 08:33N 40°39' W 074°04'0 0.0
2015-Jul-01 07:34N 40°39' W 074°04'0 0.0
2015-Jul-01 06:33N 40°39' W 074°04'0 0.0
2015-Jul-01 05:33N 40°39' W 074°04'0 0.0
2015-Jul-01 04:34N 40°39' W 074°04'0 0.0
2015-Jul-01 03:33N 40°39' W 074°04'0 0.0
2015-Jul-01 02:34N 40°39' W 074°04'0 0.0
2015-Jul-01 01:34N 40°39' W 074°04'4 4.2
2015-Jul-01 00:33N 40°42' W 074°01'4 3.7
2015-Jun-30 23:26N 40°39' W 074°04'0 0.0
2015-Jun-30 22:28N 40°39' W 074°04'0 0.1
2015-Jun-30 21:33N 40°39' W 074°04'4 4.2
2015-Jun-30 20:33N 40°42' W 074°01'0 0.0
2015-Jun-30 19:33N 40°42' W 074°01'4 3.8
2015-Jun-30 18:26N 40°39' W 074°04'0 0.2
2015-Jun-30 17:34N 40°39' W 074°04'4 4.1
2015-Jun-30 16:34N 40°42' W 074°01'4 4.3
2015-Jun-30 15:34N 40°39' W 074°04'0 0.0
2015-Jun-30 14:34N 40°39' W 074°04'0 0.1
2015-Jun-30 13:33N 40°39' W 074°04'4 3.9
2015-Jun-30 12:34N 40°42' W 074°01'0 0.2
2015-Jun-30 11:34N 40°42' W 074°01'0 0.1
2015-Jun-30 10:33N 40°42' W 074°01'4 4.2
2015-Jun-30 09:33N 40°39' W 074°04'0 0.0
2015-Jun-30 08:33N 40°39' W 074°04'0 0.0
2015-Jun-30 07:33N 40°39' W 074°04'0 0.0
2015-Jun-30 06:33N 40°39' W 074°04'0 0.0
2015-Jun-30 05:33N 40°39' W 074°04'0 0.0
2015-Jun-30 04:33N 40°39' W 074°04'0 0.0
2015-Jun-30 03:33N 40°39' W 074°04'0 0.0
2015-Jun-30 02:33N 40°39' W 074°04'0 0.0
2015-Jun-30 01:33N 40°39' W 074°04'4 4.1
2015-Jun-30 00:34N 40°42' W 074°01'4 4.1
2015-Jun-29 23:33N 40°39' W 074°04'0 0.0
2015-Jun-29 22:33N 40°39' W 074°04'0 0.0
2015-Jun-29 21:33N 40°39' W 074°04'4 4.3
2015-Jun-29 20:33N 40°42' W 074°01'0 0.1
2015-Jun-29 19:33N 40°42' W 074°01'4 4.3
2015-Jun-29 18:34N 40°39' W 074°04'0 0.4
2015-Jun-29 17:33N 40°39' W 074°04'4 3.9
2015-Jun-29 16:33N 40°42' W 074°01'4 4.3
2015-Jun-29 15:33N 40°39' W 074°04'0 0.0
2015-Jun-29 14:33N 40°39' W 074°04'0 0.1
2015-Jun-29 13:33N 40°39' W 074°04'3 3.5
2015-Jun-29 12:34N 40°41' W 074°02'0 0.2
2015-Jun-29 11:33N 40°42' W 074°01'1 0.7
2015-Jun-29 10:33N 40°42' W 074°01'4 4.3
2015-Jun-29 09:33N 40°39' W 074°04'0 0.0
2015-Jun-29 08:33N 40°39' W 074°04'0 0.0
2015-Jun-29 07:31N 40°39' W 074°04'0 0.0
2015-Jun-29 06:31N 40°39' W 074°04'0 0.0
2015-Jun-29 05:31N 40°39' W 074°04'0 0.0
2015-Jun-29 04:31N 40°39' W 074°04'0 0.0
2015-Jun-29 03:31N 40°39' W 074°04'0 0.0
2015-Jun-29 02:31N 40°39' W 074°04'0 0.0
2015-Jun-29 01:31N 40°39' W 074°04'0 0.0
2015-Jun-29 00:34N 40°39' W 074°04'0 0.1
2015-Jun-28 23:33N 40°39' W 074°04'0 0.1
2015-Jun-28 22:33N 40°39' W 074°04'0 0.2
2015-Jun-28 21:33N 40°39' W 074°04'4 4.0
2015-Jun-28 20:33N 40°42' W 074°01'4 4.2
2015-Jun-28 19:33N 40°39' W 074°04'0 0.2
2015-Jun-28 18:33N 40°39' W 074°04'4 4.0
2015-Jun-28 17:34N 40°42' W 074°01'4 4.3
2015-Jun-28 16:33N 40°39' W 074°04'0 0.3
2015-Jun-28 15:33N 40°39' W 074°04'0 0.4
2015-Jun-28 14:34N 40°39' W 074°04'0 0.0
2015-Jun-28 13:33N 40°39' W 074°04'0 0.0
2015-Jun-28 12:33N 40°39' W 074°04'0 0.0
2015-Jun-28 11:33N 40°39' W 074°04'0 0.0
2015-Jun-28 10:33N 40°39' W 074°04'0 0.0
2015-Jun-28 09:33N 40°39' W 074°04'0 0.0
2015-Jun-28 08:33N 40°39' W 074°04'0 0.0
2015-Jun-28 07:33N 40°39' W 074°04'0 0.0
2015-Jun-28 06:33N 40°39' W 074°04'0 0.0
2015-Jun-28 05:33N 40°39' W 074°04'0 0.0
2015-Jun-28 04:33N 40°39' W 074°04'0 0.0
2015-Jun-28 03:33N 40°39' W 074°04'0 0.0
2015-Jun-28 02:33N 40°39' W 074°04'0 0.0
2015-Jun-28 01:33N 40°39' W 074°04'0 0.0
2015-Jun-28 00:33N 40°39' W 074°04'4 4.3
2015-Jun-27 23:33N 40°42' W 074°01'0 0.0
2015-Jun-27 22:34N 40°42' W 074°01'0 0.1
2015-Jun-27 21:34N 40°42' W 074°01'4 4.2
2015-Jun-27 20:33N 40°39' W 074°04'0 0.1
2015-Jun-27 19:33N 40°39' W 074°04'0 0.1
2015-Jun-27 18:33N 40°39' W 074°04'4 4.1
2015-Jun-27 17:33N 40°42' W 074°01'4 4.3
2015-Jun-27 16:34N 40°39' W 074°04'0 0.5
2015-Jun-27 15:33N 40°39' W 074°04'0 0.5
2015-Jun-27 14:33N 40°39' W 074°04'4 0.3
2015-Jun-26 23:28N 40°42' W 074°01'0 0.0
2015-Jun-26 22:32N 40°42' W 074°01'0 0.2
2015-Jun-26 21:34N 40°42' W 074°01'0 0.2
2015-Jun-26 20:14N 40°42' W 074°01'4 5.8
2015-Jun-26 19:29N 40°39' W 074°04'0 0.0
2015-Jun-26 18:34N 40°39' W 074°04'0 0.2
2015-Jun-26 17:33N 40°39' W 074°04'4 4.1
2015-Jun-26 16:33N 40°42' W 074°01'4 4.4
2015-Jun-26 15:33N 40°39' W 074°04'0 0.0
2015-Jun-26 14:33N 40°39' W 074°04'0 0.0
2015-Jun-26 13:33N 40°39' W 074°04'3 3.3
2015-Jun-26 12:33N 40°41' W 074°02'0 0.4
2015-Jun-26 11:34N 40°42' W 074°01'0 0.5
2015-Jun-26 10:33N 40°42' W 074°01'4 4.1
2015-Jun-26 09:33N 40°39' W 074°04'0 0.0
2015-Jun-26 08:33N 40°39' W 074°04'0 0.0
2015-Jun-26 07:34N 40°39' W 074°04'0 0.0
2015-Jun-26 06:33N 40°39' W 074°04'0 0.0
2015-Jun-26 05:33N 40°39' W 074°04'0 0.0
2015-Jun-26 04:34N 40°39' W 074°04'0 0.0
2015-Jun-26 03:33N 40°39' W 074°04'0 0.0
2015-Jun-26 02:33N 40°39' W 074°04'0 0.0
2015-Jun-25 23:33N 40°39' W 074°04'0 0.0
2015-Jun-25 22:27N 40°39' W 074°04'0 0.1
2015-Jun-25 21:34N 40°39' W 074°04'4 4.3
2015-Jun-25 20:34N 40°42' W 074°01'0 0.0
2015-Jun-25 19:24N 40°42' W 074°01'4 4.3
2015-Jun-25 18:24N 40°39' W 074°04'0 0.2
2015-Jun-25 17:33N 40°39' W 074°04'0 0.2
2015-Jun-25 16:33N 40°39' W 074°04'0 0.0
2015-Jun-25 15:33N 40°39' W 074°04'0 0.1
2015-Jun-25 14:33N 40°39' W 074°04'0 0.1
2015-Jun-25 13:33N 40°39' W 074°04'3 3.3
2015-Jun-25 12:33N 40°41' W 074°02'0 0.0
2015-Jun-25 11:33N 40°41' W 074°02'1 1.0
2015-Jun-25 10:34N 40°42' W 074°01'4 4.2
2015-Jun-25 09:33N 40°39' W 074°04'0 0.0
2015-Jun-25 08:33N 40°39' W 074°04'0 0.0
2015-Jun-25 07:32N 40°39' W 074°04'0 0.0
2015-Jun-25 06:32N 40°39' W 074°04'0 0.0
2015-Jun-25 05:32N 40°39' W 074°04'0 0.0
2015-Jun-25 04:32N 40°39' W 074°04'0 0.0
2015-Jun-25 03:32N 40°39' W 074°04'0 0.0
2015-Jun-25 02:32N 40°39' W 074°04'0 0.0
2015-Jun-25 01:33N 40°39' W 074°04'4 4.3
2015-Jun-25 00:33N 40°42' W 074°01'4 4.3
2015-Jun-24 23:33N 40°39' W 074°04'0 0.0
2015-Jun-24 22:27N 40°39' W 074°04'0 0.0
2015-Jun-24 21:33N 40°39' W 074°04'4 4.3
2015-Jun-24 20:34N 40°42' W 074°01'0 0.0
2015-Jun-24 19:33N 40°42' W 074°01'4 4.3
2015-Jun-24 18:33N 40°39' W 074°04'0 0.1
2015-Jun-24 17:33N 40°39' W 074°04'4 4.2
2015-Jun-24 16:33N 40°42' W 074°01'4 4.3
2015-Jun-24 15:33N 40°39' W 074°04'  

Dump ship's entire track history